createdAt,value
2018-09-29T00:01:13.725Z,100502.46
2018-09-29T00:05:17.595Z,100503.41
2018-09-29T00:09:21.427Z,100505.22
2018-09-29T00:13:25.358Z,100518.09
2018-09-29T00:17:29.228Z,100522.09
2018-09-29T00:21:33.304Z,100510.62
2018-09-29T00:25:37.327Z,100523.02
2018-09-29T00:29:41.185Z,100530.57
2018-09-29T00:33:45.014Z,100542.55
2018-09-29T00:37:48.858Z,100545.67
2018-09-29T00:41:52.431Z,100547.06
2018-09-29T00:45:55.962Z,100553.68
2018-09-29T00:49:59.543Z,100572.67
2018-09-29T00:54:03.166Z,100573.56
2018-09-29T00:58:06.767Z,100588.58
2018-09-29T01:02:10.295Z,100580.19
2018-09-29T01:06:13.943Z,100581.08
2018-09-29T01:10:17.513Z,100606.23
2018-09-29T01:14:21.301Z,100603.56
2018-09-29T01:18:24.813Z,100606.19
2018-09-29T01:22:28.554Z,100597.34
2018-09-29T01:26:32.084Z,100611.47
2018-09-29T01:30:35.575Z,100615.00
2018-09-29T01:34:39.098Z,100614.11
2018-09-29T01:38:42.606Z,100616.74
2018-09-29T01:42:46.235Z,100611.89
2018-09-29T01:46:49.845Z,100613.66
2018-09-29T01:50:53.316Z,100620.27
2018-09-29T01:54:56.820Z,100631.25
2018-09-29T01:59:00.390Z,100637.40
2018-09-29T02:03:09.257Z,100649.72
2018-09-29T02:07:12.751Z,100643.10
2018-09-29T02:11:16.356Z,100657.66
2018-09-29T02:15:19.955Z,100649.27
2018-09-29T02:19:23.423Z,100656.32
2018-09-29T02:23:26.966Z,100664.72
2018-09-29T02:27:30.534Z,100665.17
2018-09-29T02:31:34.082Z,100675.28
2018-09-29T02:35:37.666Z,100681.01
2018-09-29T02:39:41.208Z,100681.88
2018-09-29T02:43:44.780Z,100687.59
2018-09-29T02:47:48.396Z,100685.38
2018-09-29T02:51:51.999Z,100679.16
2018-09-29T02:55:55.472Z,100676.49
2018-09-29T02:59:59.175Z,100680.89
2018-09-29T03:04:02.894Z,100683.53
2018-09-29T03:08:06.495Z,100681.30
2018-09-29T03:12:10.115Z,100679.97
2018-09-29T03:16:13.808Z,100682.61
2018-09-29T03:20:17.339Z,100675.09
2018-09-29T03:24:20.889Z,100672.45
2018-09-29T03:28:24.357Z,100681.72
2018-09-29T03:32:27.871Z,100689.16
2018-09-29T03:36:31.410Z,100698.39
2018-09-29T03:40:34.959Z,100706.32
2018-09-29T03:44:38.496Z,100717.77
2018-09-29T03:48:42.026Z,100716.41
2018-09-29T03:52:45.604Z,100713.28
2018-09-29T03:56:49.119Z,100706.23
2018-09-29T04:00:52.695Z,100709.28
2018-09-29T04:04:56.263Z,100715.84
2018-09-29T04:09:00.021Z,100713.61
2018-09-29T04:13:03.632Z,100720.61
2018-09-29T04:17:07.215Z,100719.70
2018-09-29T04:21:10.781Z,100725.38
2018-09-29T04:25:14.358Z,100739.94
2018-09-29T04:29:18.122Z,100741.72
2018-09-29T04:33:21.637Z,100750.47
2018-09-29T04:37:25.210Z,100764.05
2018-09-29T04:41:28.753Z,100761.35
2018-09-29T04:45:32.465Z,100773.20
2018-09-29T04:49:36.125Z,100785.08
2018-09-29T04:53:39.658Z,100785.89
2018-09-29T04:57:43.294Z,100791.97
2018-09-29T05:01:46.803Z,100798.53
2018-09-29T05:05:50.314Z,100797.13
2018-09-29T05:09:53.978Z,100809.78
2018-09-29T05:13:57.596Z,100831.72
2018-09-29T05:18:01.345Z,100834.71
2018-09-29T05:22:05.478Z,100842.61
2018-09-29T05:26:08.986Z,100844.31
2018-09-29T05:30:13.263Z,100847.88
2018-09-29T05:34:16.852Z,100851.80
2018-09-29T05:38:20.541Z,100843.81
2018-09-29T05:42:24.447Z,100856.91
2018-09-29T05:46:28.078Z,100852.77
2018-09-29T05:50:32.608Z,100854.50
2018-09-29T05:54:36.102Z,100854.48
2018-09-29T05:58:39.817Z,100851.73
2018-09-29T06:02:43.865Z,100861.77
2018-09-29T06:06:47.505Z,100857.75
2018-09-29T06:10:51.156Z,100864.81
2018-09-29T06:14:54.810Z,100865.55
2018-09-29T06:18:58.374Z,100858.58
2018-09-29T06:23:01.856Z,100866.16
2018-09-29T06:27:05.403Z,100863.24
2018-09-29T06:31:09.384Z,100869.50
2018-09-29T06:35:13.053Z,100867.83
2018-09-29T06:39:16.648Z,100881.61
2018-09-29T06:43:20.173Z,100884.25
2018-09-29T06:47:23.681Z,100881.66
2018-09-29T06:51:27.258Z,100888.68
2018-09-29T06:55:30.941Z,100890.05
2018-09-29T06:59:34.553Z,100904.10
2018-09-29T07:03:38.379Z,100899.36
2018-09-29T07:07:42.038Z,100901.66
2018-09-29T07:11:45.682Z,100911.47
2018-09-29T07:15:49.325Z,100914.59
2018-09-29T07:19:52.920Z,100921.34
2018-09-29T07:23:56.518Z,100919.74
2018-09-29T07:28:01.234Z,100925.30
2018-09-29T07:32:05.273Z,100925.36
2018-09-29T07:36:08.896Z,100931.58
2018-09-29T07:40:12.466Z,100944.53
2018-09-29T07:44:16.025Z,100944.17
2018-09-29T07:48:19.611Z,100945.09
2018-09-29T07:52:23.291Z,100949.46
2018-09-29T07:56:26.813Z,100954.25
2018-09-29T08:00:30.371Z,100948.96
2018-09-29T08:04:33.884Z,100948.65
2018-09-29T08:08:37.500Z,100942.09
2018-09-29T08:12:41.034Z,100947.42
2018-09-29T08:16:44.556Z,100947.88
2018-09-29T08:20:48.167Z,100952.70
2018-09-29T08:24:51.712Z,100948.82
2018-09-29T08:28:55.198Z,100963.41
2018-09-29T08:32:58.753Z,100961.24
2018-09-29T08:37:02.333Z,100958.23
2018-09-29T08:41:05.903Z,100961.89
2018-09-29T08:45:09.513Z,100963.30
2018-09-29T08:49:12.973Z,100968.27
2018-09-29T08:53:16.569Z,100963.95
2018-09-29T08:57:21.110Z,100965.30
2018-09-29T09:01:24.626Z,100972.80
2018-09-29T09:05:28.150Z,100976.80
2018-09-29T09:09:31.958Z,100973.31
2018-09-29T09:13:35.631Z,100975.52
2018-09-29T09:17:39.145Z,100972.88
2018-09-29T09:21:42.701Z,100973.34
2018-09-29T09:25:46.256Z,100973.38
2018-09-29T09:29:49.865Z,100970.34
2018-09-29T09:33:53.348Z,100984.46
2018-09-29T09:37:56.998Z,100982.27
2018-09-29T09:42:00.742Z,100981.44
2018-09-29T09:46:04.304Z,100983.70
2018-09-29T09:50:07.914Z,100978.91
2018-09-29T09:54:11.458Z,100970.52
2018-09-29T09:58:14.988Z,100980.28
2018-09-29T10:02:23.793Z,100968.39
2018-09-29T10:06:27.603Z,100970.60
2018-09-29T10:10:31.323Z,100969.70
2018-09-29T10:14:35.041Z,100957.80
2018-09-29T10:18:38.648Z,100957.84
2018-09-29T10:22:42.199Z,100947.27
2018-09-29T10:26:45.733Z,100953.86
2018-09-29T10:30:49.359Z,100964.91
2018-09-29T10:34:53.040Z,100960.56
2018-09-29T10:38:56.537Z,100957.54
2018-09-29T10:43:00.053Z,100953.16
2018-09-29T10:47:03.823Z,100949.19
2018-09-29T10:51:07.461Z,100950.53
2018-09-29T10:55:11.021Z,100949.20
2018-09-29T10:59:14.590Z,100948.31
2018-09-29T11:03:18.174Z,100937.71
2018-09-29T11:07:21.883Z,100937.72
2018-09-29T11:11:25.445Z,100935.95
2018-09-29T11:15:28.955Z,100930.22
2018-09-29T11:19:33.080Z,100919.61
2018-09-29T11:23:36.594Z,100919.61
2018-09-29T11:27:40.148Z,100912.08
2018-09-29T11:31:43.683Z,100898.84
2018-09-29T11:35:47.323Z,100894.45
2018-09-29T11:39:50.872Z,100904.61
2018-09-29T11:43:54.370Z,100895.33
2018-09-29T11:47:57.911Z,100883.84
2018-09-29T11:52:01.415Z,100882.11
2018-09-29T11:56:04.909Z,100880.30
2018-09-29T12:00:08.434Z,100892.22
2018-09-29T12:04:12.066Z,100882.53
2018-09-29T12:08:15.587Z,100875.44
2018-09-29T12:12:19.221Z,100871.50
2018-09-29T12:16:22.871Z,100871.52
2018-09-29T12:20:26.443Z,100873.70
2018-09-29T12:24:31.019Z,100868.85
2018-09-29T12:28:34.678Z,100863.98
2018-09-29T12:32:38.230Z,100867.08
2018-09-29T12:36:41.998Z,100858.67
2018-09-29T12:40:45.536Z,100859.57
2018-09-29T12:44:49.147Z,100854.66
2018-09-29T12:48:52.542Z,100848.47
2018-09-29T12:52:56.101Z,100842.26
2018-09-29T12:56:59.671Z,100843.16
2018-09-29T13:01:04.673Z,100838.73
2018-09-29T13:05:08.510Z,100843.16
2018-09-29T13:09:12.010Z,100849.36
2018-09-29T13:13:16.807Z,100845.35
2018-09-29T13:17:22.468Z,100833.41
2018-09-29T13:21:26.095Z,100838.28
2018-09-29T13:25:29.649Z,100829.89
2018-09-29T13:29:33.191Z,100835.19
2018-09-29T13:33:36.701Z,100824.58
2018-09-29T13:37:40.221Z,100831.20
2018-09-29T13:41:43.916Z,100826.77
2018-09-29T13:45:47.478Z,100827.22
2018-09-29T13:49:51.029Z,100827.22
2018-09-29T13:53:54.578Z,100820.16
2018-09-29T13:57:58.050Z,100816.59
2018-09-29T14:02:03.946Z,100815.72
2018-09-29T14:06:07.437Z,100821.02
2018-09-29T14:10:10.958Z,100810.41
2018-09-29T14:14:14.733Z,100820.59
2018-09-29T14:18:18.213Z,100825.42
2018-09-29T14:22:21.813Z,100823.66
2018-09-29T14:26:25.393Z,100817.91
2018-09-29T14:30:29.587Z,100820.58
2018-09-29T14:34:33.136Z,100813.50
2018-09-29T14:38:37.009Z,100808.64
2018-09-29T14:42:40.455Z,100811.27
2018-09-29T14:46:44.028Z,100805.53
2018-09-29T14:50:47.826Z,100809.51
2018-09-29T14:55:06.883Z,100805.98
2018-09-29T14:59:10.662Z,100803.75
2018-09-29T15:03:14.256Z,100806.86
2018-09-29T15:07:18.020Z,100802.87
2018-09-29T15:25:08.823Z,100803.30
2018-09-29T15:29:13.201Z,100802.44
2018-09-29T15:33:16.932Z,100801.55
2018-09-29T15:37:20.656Z,100798.44
2018-09-29T15:41:25.111Z,100794.45
2018-09-29T15:45:28.816Z,100805.51
2018-09-29T15:49:32.569Z,100804.19
2018-09-29T15:53:42.701Z,100794.45
2018-09-29T15:57:46.339Z,100800.19
2018-09-29T16:01:50.036Z,100795.33
2018-09-29T16:05:54.508Z,100795.78
2018-09-29T16:09:58.150Z,100801.94
2018-09-29T16:14:02.791Z,100798.84
2018-09-29T16:18:06.357Z,100797.06
2018-09-29T16:22:09.944Z,100797.05
2018-09-29T16:26:14.172Z,100794.83
2018-09-29T16:30:17.790Z,100798.80
2018-09-29T16:34:22.342Z,100805.00
2018-09-29T16:38:27.144Z,100800.56
2018-09-29T16:42:31.133Z,100806.76
2018-09-29T16:46:34.813Z,100819.53
2018-09-29T16:59:31.145Z,100827.88
2018-09-29T17:08:12.632Z,100831.28
2018-09-29T17:12:16.666Z,100835.67
2018-09-29T17:16:20.243Z,100833.87
2018-09-29T17:20:44.069Z,100840.41
2018-09-29T17:24:47.593Z,100844.78
2018-09-29T17:28:52.006Z,100850.06
2018-09-29T17:32:55.748Z,100850.45
2018-09-29T17:36:59.256Z,100850.83
2018-09-29T17:41:02.857Z,100848.09
2018-09-29T17:45:06.512Z,100844.48
2018-09-29T17:49:10.062Z,100850.56
2018-09-29T17:53:13.560Z,100857.14
2018-09-29T17:57:17.258Z,100854.44
2018-09-29T18:01:21.699Z,100862.33
2018-09-29T18:05:25.322Z,100861.83
2018-09-29T18:09:28.809Z,100862.64
2018-09-29T18:13:32.534Z,100860.35
2018-09-29T18:17:38.087Z,100857.68
2018-09-29T18:21:42.228Z,100860.27
2018-09-29T18:25:46.392Z,100865.94
2018-09-29T18:29:50.563Z,100860.09
2018-09-29T19:06:23.269Z,100871.91
2018-09-29T19:10:27.229Z,100872.71
2018-09-29T19:14:30.868Z,100875.30
2018-09-29T19:18:34.360Z,100875.64
2018-09-29T19:22:37.902Z,100879.10
2018-09-29T19:26:41.535Z,100873.75
2018-09-29T19:30:45.419Z,100883.75
2018-09-29T19:34:49.061Z,100875.25
2018-09-29T19:38:52.569Z,100877.77
2018-09-29T19:42:56.022Z,100888.27
2018-09-29T19:46:59.502Z,100878.54
2018-09-29T19:51:03.038Z,100889.94
2018-09-29T19:55:06.881Z,100880.64
2018-09-29T19:59:10.374Z,100875.34
2018-09-29T20:03:14.192Z,100873.06
2018-09-29T20:07:17.683Z,100874.73
2018-09-29T20:11:21.210Z,100875.11
2018-09-29T20:15:24.927Z,100875.02
2018-09-29T20:19:28.458Z,100879.31
2018-09-29T20:23:31.988Z,100874.70
2018-09-29T20:27:35.550Z,100876.80
2018-09-29T20:31:39.966Z,100880.63
2018-09-29T20:35:43.467Z,100884.41
2018-09-29T20:39:47.005Z,100883.83
2018-09-29T20:43:50.810Z,100880.62
2018-09-29T20:47:54.345Z,100882.34
2018-09-29T20:51:57.834Z,100880.08
2018-09-29T20:56:01.322Z,100884.43
2018-09-29T21:00:05.978Z,100882.20
2018-09-29T21:04:09.422Z,100873.42
2018-09-29T21:08:13.204Z,100867.65
2018-09-29T21:12:16.685Z,100862.31
2018-09-29T21:16:20.144Z,100866.63
2018-09-29T21:20:23.995Z,100865.31
2018-09-29T21:24:27.474Z,100854.27
2018-09-29T21:28:31.268Z,100867.87
2018-09-29T21:32:34.717Z,100864.25
2018-09-29T21:36:38.306Z,100859.36
2018-09-29T21:40:41.695Z,100872.88
2018-09-29T21:44:45.164Z,100858.30
2018-09-29T21:48:48.597Z,100858.70
2018-09-29T21:52:52.111Z,100864.25
2018-09-29T21:56:55.537Z,100861.03
2018-09-29T22:01:04.418Z,100868.33
2018-09-29T22:05:08.839Z,100869.48
2018-09-29T22:09:16.562Z,100870.61
2018-09-29T22:13:20.032Z,100869.58
2018-09-29T22:17:23.702Z,100862.88
2018-09-29T22:21:27.203Z,100857.90
2018-09-29T22:25:30.696Z,100853.83
2018-09-29T22:29:34.273Z,100845.02
2018-09-29T22:33:37.853Z,100844.02
2018-09-29T22:37:41.552Z,100831.63
2018-09-29T22:41:45.470Z,100832.55
2018-09-29T22:45:49.306Z,100829.00
2018-09-29T22:49:52.731Z,100825.10
2018-09-29T22:53:56.201Z,100825.02
2018-09-29T22:57:59.677Z,100825.33
2018-09-29T23:02:03.253Z,100822.54
2018-09-29T23:06:06.869Z,100821.53
2018-09-29T23:10:10.537Z,100823.68
2018-09-29T23:14:14.307Z,100827.50
2018-09-29T23:18:18.116Z,100821.71
2018-09-29T23:22:21.616Z,100822.47
2018-09-29T23:26:25.061Z,100809.72
2018-09-29T23:30:28.526Z,100803.98
2018-09-29T23:34:31.993Z,100805.30
2018-09-29T23:38:35.449Z,100809.55
2018-09-29T23:42:39.001Z,100817.69
2018-09-29T23:46:42.630Z,100804.38
2018-09-29T23:50:46.122Z,100803.37
2018-09-29T23:54:49.646Z,100805.03
2018-09-29T23:58:53.213Z,100802.67
